sensor_id;sensor_type;location;lat;lon;timestamp;temperature;humidity
50067;DHT22;35952;52.524;13.340;2023-10-31T00:02:18;12.90;99.90
50067;DHT22;35952;52.524;13.340;2023-10-31T00:04:44;13.00;99.90
50067;DHT22;35952;52.524;13.340;2023-10-31T00:07:10;12.90;99.90
50067;DHT22;35952;52.524;13.340;2023-10-31T00:09:35;13.00;99.90
50067;DHT22;35952;52.524;13.340;2023-10-31T00:12:01;13.00;99.90
50067;DHT22;35952;52.524;13.340;2023-10-31T00:14:26;13.00;99.90
50067;DHT22;35952;52.524;13.340;2023-10-31T00:16:52;13.10;99.90
50067;DHT22;35952;52.524;13.340;2023-10-31T00:19:18;13.00;99.90
50067;DHT22;35952;52.524;13.340;2023-10-31T00:21:43;12.90;99.90
50067;DHT22;35952;52.524;13.340;2023-10-31T00:24:09;13.00;99.90
50067;DHT22;35952;52.524;13.340;2023-10-31T00:26:34;13.00;99.90
50067;DHT22;35952;52.524;13.340;2023-10-31T00:29:00;13.00;99.90
50067;DHT22;35952;52.524;13.340;2023-10-31T00:31:25;13.00;99.90
50067;DHT22;35952;52.524;13.340;2023-10-31T00:33:51;12.90;99.90
50067;DHT22;35952;52.524;13.340;2023-10-31T00:36:16;12.80;99.90
50067;DHT22;35952;52.524;13.340;2023-10-31T00:38:42;12.80;99.90
50067;DHT22;35952;52.524;13.340;2023-10-31T00:41:07;12.80;99.90
50067;DHT22;35952;52.524;13.340;2023-10-31T00:43:33;13.00;99.90
50067;DHT22;35952;52.524;13.340;2023-10-31T00:45:58;13.10;99.90
50067;DHT22;35952;52.524;13.340;2023-10-31T00:48:25;12.90;99.90
50067;DHT22;35952;52.524;13.340;2023-10-31T00:50:50;12.90;99.90
50067;DHT22;35952;52.524;13.340;2023-10-31T00:53:16;12.90;99.90
50067;DHT22;35952;52.524;13.340;2023-10-31T00:55:42;12.90;99.90
50067;DHT22;35952;52.524;13.340;2023-10-31T00:58:07;12.70;99.90
50067;DHT22;35952;52.524;13.340;2023-10-31T01:00:33;12.80;99.90
50067;DHT22;35952;52.524;13.340;2023-10-31T01:02:59;12.70;99.90
50067;DHT22;35952;52.524;13.340;2023-10-31T01:05:25;12.70;99.90
50067;DHT22;35952;52.524;13.340;2023-10-31T01:07:52;12.70;99.90
50067;DHT22;35952;52.524;13.340;2023-10-31T01:10:17;12.70;99.90
50067;DHT22;35952;52.524;13.340;2023-10-31T01:12:43;12.80;99.90
50067;DHT22;35952;52.524;13.340;2023-10-31T01:15:09;12.70;99.90
50067;DHT22;35952;52.524;13.340;2023-10-31T01:17:34;12.80;99.90
50067;DHT22;35952;52.524;13.340;2023-10-31T01:20:00;12.80;99.90
50067;DHT22;35952;52.524;13.340;2023-10-31T01:22:25;12.90;99.90
50067;DHT22;35952;52.524;13.340;2023-10-31T01:24:50;12.80;99.90
50067;DHT22;35952;52.524;13.340;2023-10-31T01:27:16;12.70;99.90
50067;DHT22;35952;52.524;13.340;2023-10-31T01:29:42;12.60;99.90
50067;DHT22;35952;52.524;13.340;2023-10-31T01:32:07;12.50;99.90
50067;DHT22;35952;52.524;13.340;2023-10-31T01:34:33;12.50;99.90
50067;DHT22;35952;52.524;13.340;2023-10-31T01:36:58;12.50;99.90
50067;DHT22;35952;52.524;13.340;2023-10-31T01:39:24;12.60;99.90
50067;DHT22;35952;52.524;13.340;2023-10-31T01:41:49;12.60;99.90
50067;DHT22;35952;52.524;13.340;2023-10-31T01:44:15;12.60;99.90
50067;DHT22;35952;52.524;13.340;2023-10-31T01:46:40;12.60;99.90
50067;DHT22;35952;52.524;13.340;2023-10-31T01:49:06;12.30;99.90
50067;DHT22;35952;52.524;13.340;2023-10-31T01:51:31;12.10;99.90
50067;DHT22;35952;52.524;13.340;2023-10-31T01:53:57;12.20;99.90
50067;DHT22;35952;52.524;13.340;2023-10-31T01:56:23;12.30;99.90
50067;DHT22;35952;52.524;13.340;2023-10-31T01:58:50;12.40;99.90
50067;DHT22;35952;52.524;13.340;2023-10-31T02:01:16;12.40;99.90
50067;DHT22;35952;52.524;13.340;2023-10-31T02:03:42;12.30;99.90
50067;DHT22;35952;52.524;13.340;2023-10-31T02:06:07;12.10;99.90
50067;DHT22;35952;52.524;13.340;2023-10-31T02:08:33;12.00;99.90
50067;DHT22;35952;52.524;13.340;2023-10-31T02:10:59;12.00;99.90
50067;DHT22;35952;52.524;13.340;2023-10-31T02:13:25;12.10;99.90
50067;DHT22;35952;52.524;13.340;2023-10-31T02:15:50;12.20;99.90
50067;DHT22;35952;52.524;13.340;2023-10-31T02:18:16;12.20;99.90
50067;DHT22;35952;52.524;13.340;2023-10-31T02:20:42;12.10;99.90
50067;DHT22;35952;52.524;13.340;2023-10-31T02:23:07;12.10;99.90
50067;DHT22;35952;52.524;13.340;2023-10-31T02:25:33;12.00;99.90
50067;DHT22;35952;52.524;13.340;2023-10-31T02:27:59;12.00;99.90
50067;DHT22;35952;52.524;13.340;2023-10-31T02:30:24;12.10;99.90
50067;DHT22;35952;52.524;13.340;2023-10-31T02:32:50;11.90;99.90
50067;DHT22;35952;52.524;13.340;2023-10-31T02:35:17;11.80;99.90
50067;DHT22;35952;52.524;13.340;2023-10-31T02:37:46;11.80;99.90
50067;DHT22;35952;52.524;13.340;2023-10-31T02:40:12;11.80;99.90
50067;DHT22;35952;52.524;13.340;2023-10-31T02:42:38;11.80;99.90
50067;DHT22;35952;52.524;13.340;2023-10-31T02:45:04;11.90;99.90
50067;DHT22;35952;52.524;13.340;2023-10-31T02:47:30;12.00;99.90
50067;DHT22;35952;52.524;13.340;2023-10-31T02:49:55;12.00;99.90
50067;DHT22;35952;52.524;13.340;2023-10-31T02:52:21;12.00;99.90
50067;DHT22;35952;52.524;13.340;2023-10-31T02:54:46;11.80;99.90
50067;DHT22;35952;52.524;13.340;2023-10-31T02:57:12;11.80;99.90
50067;DHT22;35952;52.524;13.340;2023-10-31T02:59:37;11.90;99.90
50067;DHT22;35952;52.524;13.340;2023-10-31T03:02:03;11.90;99.90
50067;DHT22;35952;52.524;13.340;2023-10-31T03:04:31;11.80;99.90
50067;DHT22;35952;52.524;13.340;2023-10-31T03:06:57;11.80;99.90
50067;DHT22;35952;52.524;13.340;2023-10-31T03:09:22;11.80;99.90
50067;DHT22;35952;52.524;13.340;2023-10-31T03:11:47;11.90;99.90
50067;DHT22;35952;52.524;13.340;2023-10-31T03:14:13;12.00;99.90
50067;DHT22;35952;52.524;13.340;2023-10-31T03:16:39;12.00;99.90
50067;DHT22;35952;52.524;13.340;2023-10-31T03:19:04;12.00;99.90
50067;DHT22;35952;52.524;13.340;2023-10-31T03:21:30;12.00;99.90
50067;DHT22;35952;52.524;13.340;2023-10-31T03:23:55;12.10;99.90
50067;DHT22;35952;52.524;13.340;2023-10-31T03:26:21;12.10;99.90
50067;DHT22;35952;52.524;13.340;2023-10-31T03:28:47;12.10;99.90
50067;DHT22;35952;52.524;13.340;2023-10-31T03:31:14;12.10;99.90
50067;DHT22;35952;52.524;13.340;2023-10-31T03:33:40;12.00;99.90
50067;DHT22;35952;52.524;13.340;2023-10-31T03:36:06;12.00;99.90
50067;DHT22;35952;52.524;13.340;2023-10-31T03:38:32;12.00;99.90
50067;DHT22;35952;52.524;13.340;2023-10-31T03:40:57;12.00;99.90
50067;DHT22;35952;52.524;13.340;2023-10-31T03:43:23;12.10;99.90
50067;DHT22;35952;52.524;13.340;2023-10-31T03:45:48;12.20;99.90
50067;DHT22;35952;52.524;13.340;2023-10-31T03:48:15;12.10;99.90
50067;DHT22;35952;52.524;13.340;2023-10-31T03:50:41;12.10;99.90
50067;DHT22;35952;52.524;13.340;2023-10-31T03:53:06;12.10;99.90
50067;DHT22;35952;52.524;13.340;2023-10-31T03:55:32;12.20;99.90
50067;DHT22;35952;52.524;13.340;2023-10-31T03:57:57;12.20;99.90
50067;DHT22;35952;52.524;13.340;2023-10-31T04:00:23;12.10;99.90
50067;DHT22;35952;52.524;13.340;2023-10-31T04:02:48;12.10;99.90
50067;DHT22;35952;52.524;13.340;2023-10-31T04:05:14;12.00;99.90
50067;DHT22;35952;52.524;13.340;2023-10-31T04:07:40;12.10;99.90
50067;DHT22;35952;52.524;13.340;2023-10-31T04:10:06;12.10;99.90
50067;DHT22;35952;52.524;13.340;2023-10-31T04:12:32;12.10;99.90
50067;DHT22;35952;52.524;13.340;2023-10-31T04:14:57;12.00;99.90
50067;DHT22;35952;52.524;13.340;2023-10-31T04:17:23;12.10;99.90
50067;DHT22;35952;52.524;13.340;2023-10-31T04:19:48;12.00;99.90
50067;DHT22;35952;52.524;13.340;2023-10-31T04:22:14;12.00;99.90
50067;DHT22;35952;52.524;13.340;2023-10-31T04:24:39;12.00;99.90
50067;DHT22;35952;52.524;13.340;2023-10-31T04:27:05;12.00;99.90
50067;DHT22;35952;52.524;13.340;2023-10-31T04:29:31;12.00;99.90
50067;DHT22;35952;52.524;13.340;2023-10-31T04:31:56;12.00;99.90
50067;DHT22;35952;52.524;13.340;2023-10-31T04:34:21;12.00;99.90
50067;DHT22;35952;52.524;13.340;2023-10-31T04:36:47;12.10;99.90
50067;DHT22;35952;52.524;13.340;2023-10-31T04:39:12;12.00;99.90
50067;DHT22;35952;52.524;13.340;2023-10-31T04:41:38;12.00;99.90
50067;DHT22;35952;52.524;13.340;2023-10-31T04:44:04;12.00;99.90
50067;DHT22;35952;52.524;13.340;2023-10-31T04:46:29;12.00;99.90
50067;DHT22;35952;52.524;13.340;2023-10-31T04:48:55;12.00;99.90
50067;DHT22;35952;52.524;13.340;2023-10-31T04:51:20;12.10;99.90
50067;DHT22;35952;52.524;13.340;2023-10-31T04:53:46;12.10;99.90
50067;DHT22;35952;52.524;13.340;2023-10-31T04:56:15;12.10;99.90
50067;DHT22;35952;52.524;13.340;2023-10-31T04:58:42;12.10;99.90
50067;DHT22;35952;52.524;13.340;2023-10-31T05:01:09;12.10;99.90
50067;DHT22;35952;52.524;13.340;2023-10-31T05:03:34;12.10;99.90
50067;DHT22;35952;52.524;13.340;2023-10-31T05:06:00;12.10;99.90
50067;DHT22;35952;52.524;13.340;2023-10-31T05:08:25;12.10;99.90
50067;DHT22;35952;52.524;13.340;2023-10-31T05:10:51;12.20;99.90
50067;DHT22;35952;52.524;13.340;2023-10-31T05:13:16;12.20;99.90
50067;DHT22;35952;52.524;13.340;2023-10-31T05:15:42;12.10;99.90
50067;DHT22;35952;52.524;13.340;2023-10-31T05:18:07;12.20;99.90
50067;DHT22;35952;52.524;13.340;2023-10-31T05:20:34;12.20;99.90
50067;DHT22;35952;52.524;13.340;2023-10-31T05:22:59;12.30;99.90
50067;DHT22;35952;52.524;13.340;2023-10-31T05:25:25;12.30;99.90
50067;DHT22;35952;52.524;13.340;2023-10-31T05:27:50;12.20;99.90
50067;DHT22;35952;52.524;13.340;2023-10-31T05:30:17;12.30;99.90
50067;DHT22;35952;52.524;13.340;2023-10-31T05:32:44;12.30;99.90
50067;DHT22;35952;52.524;13.340;2023-10-31T05:35:10;12.30;99.90
50067;DHT22;35952;52.524;13.340;2023-10-31T05:37:36;12.30;99.90
50067;DHT22;35952;52.524;13.340;2023-10-31T05:40:02;12.30;99.90
50067;DHT22;35952;52.524;13.340;2023-10-31T05:42:27;12.30;99.90
50067;DHT22;35952;52.524;13.340;2023-10-31T05:44:54;12.30;99.90
50067;DHT22;35952;52.524;13.340;2023-10-31T05:47:22;12.40;99.90
50067;DHT22;35952;52.524;13.340;2023-10-31T05:50:03;12.30;99.90
50067;DHT22;35952;52.524;13.340;2023-10-31T05:52:32;12.40;99.90
50067;DHT22;35952;52.524;13.340;2023-10-31T05:55:00;12.30;99.90
50067;DHT22;35952;52.524;13.340;2023-10-31T05:57:34;12.40;99.90
50067;DHT22;35952;52.524;13.340;2023-10-31T06:00:07;12.40;99.90
50067;DHT22;35952;52.524;13.340;2023-10-31T06:02:36;12.40;99.90
50067;DHT22;35952;52.524;13.340;2023-10-31T06:05:05;12.40;99.90
50067;DHT22;35952;52.524;13.340;2023-10-31T06:07:35;12.40;99.90
50067;DHT22;35952;52.524;13.340;2023-10-31T06:10:04;12.50;99.90
50067;DHT22;35952;52.524;13.340;2023-10-31T06:12:38;12.40;99.90
50067;DHT22;35952;52.524;13.340;2023-10-31T06:15:07;12.50;99.90
50067;DHT22;35952;52.524;13.340;2023-10-31T06:17:37;12.50;99.90
50067;DHT22;35952;52.524;13.340;2023-10-31T06:20:03;12.50;99.90
50067;DHT22;35952;52.524;13.340;2023-10-31T06:22:33;12.50;99.90
50067;DHT22;35952;52.524;13.340;2023-10-31T06:25:06;12.40;99.90
50067;DHT22;35952;52.524;13.340;2023-10-31T06:27:34;12.50;99.90
50067;DHT22;35952;52.524;13.340;2023-10-31T06:30:06;12.40;99.90
50067;DHT22;35952;52.524;13.340;2023-10-31T06:32:31;12.50;99.90
50067;DHT22;35952;52.524;13.340;2023-10-31T06:35:01;12.50;99.90
50067;DHT22;35952;52.524;13.340;2023-10-31T06:37:48;12.60;99.90
50067;DHT22;35952;52.524;13.340;2023-10-31T06:40:15;12.60;99.90
50067;DHT22;35952;52.524;13.340;2023-10-31T06:42:41;12.60;99.90
50067;DHT22;35952;52.524;13.340;2023-10-31T06:45:09;12.70;99.90
50067;DHT22;35952;52.524;13.340;2023-10-31T06:47:43;12.60;99.90
50067;DHT22;35952;52.524;13.340;2023-10-31T06:50:14;12.70;99.90
50067;DHT22;35952;52.524;13.340;2023-10-31T06:52:39;12.70;99.90
50067;DHT22;35952;52.524;13.340;2023-10-31T06:55:08;12.80;99.90
50067;DHT22;35952;52.524;13.340;2023-10-31T06:57:34;12.80;99.90
50067;DHT22;35952;52.524;13.340;2023-10-31T07:00:02;12.80;99.90
50067;DHT22;35952;52.524;13.340;2023-10-31T07:02:31;12.80;99.90
50067;DHT22;35952;52.524;13.340;2023-10-31T07:04:56;12.80;99.90
50067;DHT22;35952;52.524;13.340;2023-10-31T07:07:25;12.80;99.90
50067;DHT22;35952;52.524;13.340;2023-10-31T07:09:53;12.90;99.90
50067;DHT22;35952;52.524;13.340;2023-10-31T07:12:24;13.00;99.90
50067;DHT22;35952;52.524;13.340;2023-10-31T07:14:53;13.00;99.90
50067;DHT22;35952;52.524;13.340;2023-10-31T07:17:26;13.10;99.90
50067;DHT22;35952;52.524;13.340;2023-10-31T07:19:55;13.10;99.90
50067;DHT22;35952;52.524;13.340;2023-10-31T07:22:32;13.00;99.90
50067;DHT22;35952;52.524;13.340;2023-10-31T07:24:59;13.00;99.90
50067;DHT22;35952;52.524;13.340;2023-10-31T07:27:31;13.00;99.90
50067;DHT22;35952;52.524;13.340;2023-10-31T07:29:59;12.90;99.90
50067;DHT22;35952;52.524;13.340;2023-10-31T07:32:25;12.80;99.90
50067;DHT22;35952;52.524;13.340;2023-10-31T07:34:56;12.80;99.90
50067;DHT22;35952;52.524;13.340;2023-10-31T07:37:24;12.80;99.90
50067;DHT22;35952;52.524;13.340;2023-10-31T07:39:50;12.70;99.90
50067;DHT22;35952;52.524;13.340;2023-10-31T07:42:23;12.70;99.90
50067;DHT22;35952;52.524;13.340;2023-10-31T07:44:54;12.70;99.90
50067;DHT22;35952;52.524;13.340;2023-10-31T07:47:25;12.60;99.90
50067;DHT22;35952;52.524;13.340;2023-10-31T07:49:50;12.70;99.90
50067;DHT22;35952;52.524;13.340;2023-10-31T07:52:19;12.80;99.90
50067;DHT22;35952;52.524;13.340;2023-10-31T07:54:47;12.80;99.90
50067;DHT22;35952;52.524;13.340;2023-10-31T07:57:17;12.80;99.90
50067;DHT22;35952;52.524;13.340;2023-10-31T07:59:48;12.80;99.90
50067;DHT22;35952;52.524;13.340;2023-10-31T08:02:16;12.80;99.90
50067;DHT22;35952;52.524;13.340;2023-10-31T08:04:43;12.80;99.90
50067;DHT22;35952;52.524;13.340;2023-10-31T08:07:14;12.80;99.90
50067;DHT22;35952;52.524;13.340;2023-10-31T08:09:43;12.90;99.90
50067;DHT22;35952;52.524;13.340;2023-10-31T08:12:11;12.90;99.90
50067;DHT22;35952;52.524;13.340;2023-10-31T08:14:37;12.90;99.90
50067;DHT22;35952;52.524;13.340;2023-10-31T08:17:02;12.90;99.90
50067;DHT22;35952;52.524;13.340;2023-10-31T08:19:30;13.00;99.90
50067;DHT22;35952;52.524;13.340;2023-10-31T08:22:00;13.00;99.90
50067;DHT22;35952;52.524;13.340;2023-10-31T08:24:26;13.00;99.90
50067;DHT22;35952;52.524;13.340;2023-10-31T08:26:54;13.00;99.90
50067;DHT22;35952;52.524;13.340;2023-10-31T08:29:22;13.10;99.90
50067;DHT22;35952;52.524;13.340;2023-10-31T08:31:50;13.10;99.90
50067;DHT22;35952;52.524;13.340;2023-10-31T08:34:19;13.00;99.90
50067;DHT22;35952;52.524;13.340;2023-10-31T08:36:47;13.10;99.90
50067;DHT22;35952;52.524;13.340;2023-10-31T08:39:15;13.10;99.90
50067;DHT22;35952;52.524;13.340;2023-10-31T08:41:54;13.20;99.90
50067;DHT22;35952;52.524;13.340;2023-10-31T08:44:20;13.40;99.90
50067;DHT22;35952;52.524;13.340;2023-10-31T08:46:49;13.40;99.90
50067;DHT22;35952;52.524;13.340;2023-10-31T08:49:18;13.40;99.90
50067;DHT22;35952;52.524;13.340;2023-10-31T08:51:48;13.40;99.90
50067;DHT22;35952;52.524;13.340;2023-10-31T08:54:19;13.40;99.90
50067;DHT22;35952;52.524;13.340;2023-10-31T08:56:44;13.40;99.90
50067;DHT22;35952;52.524;13.340;2023-10-31T08:59:20;13.40;99.90
50067;DHT22;35952;52.524;13.340;2023-10-31T09:01:48;13.30;99.90
50067;DHT22;35952;52.524;13.340;2023-10-31T09:04:17;13.30;99.90
50067;DHT22;35952;52.524;13.340;2023-10-31T09:06:42;13.30;99.90
50067;DHT22;35952;52.524;13.340;2023-10-31T09:09:11;13.30;99.90
50067;DHT22;35952;52.524;13.340;2023-10-31T09:11:39;13.30;99.90
50067;DHT22;35952;52.524;13.340;2023-10-31T09:14:04;13.40;99.90
50067;DHT22;35952;52.524;13.340;2023-10-31T09:16:36;13.40;99.90
50067;DHT22;35952;52.524;13.340;2023-10-31T09:19:06;13.60;99.90
50067;DHT22;35952;52.524;13.340;2023-10-31T09:21:31;13.50;99.90
50067;DHT22;35952;52.524;13.340;2023-10-31T09:23:57;13.60;99.90
50067;DHT22;35952;52.524;13.340;2023-10-31T09:26:25;13.50;99.90
50067;DHT22;35952;52.524;13.340;2023-10-31T09:28:54;13.60;99.90
50067;DHT22;35952;52.524;13.340;2023-10-31T09:31:23;13.50;99.90
50067;DHT22;35952;52.524;13.340;2023-10-31T09:33:51;13.50;99.90
50067;DHT22;35952;52.524;13.340;2023-10-31T09:36:20;13.40;99.90
50067;DHT22;35952;52.524;13.340;2023-10-31T09:38:46;13.40;99.90
50067;DHT22;35952;52.524;13.340;2023-10-31T09:41:15;13.30;99.90
50067;DHT22;35952;52.524;13.340;2023-10-31T09:43:43;13.30;99.90
50067;DHT22;35952;52.524;13.340;2023-10-31T09:46:14;13.30;99.90
50067;DHT22;35952;52.524;13.340;2023-10-31T09:48:43;13.30;99.90
50067;DHT22;35952;52.524;13.340;2023-10-31T09:51:09;13.30;99.90
50067;DHT22;35952;52.524;13.340;2023-10-31T09:53:41;13.40;99.90
50067;DHT22;35952;52.524;13.340;2023-10-31T09:56:23;13.50;99.90
50067;DHT22;35952;52.524;13.340;2023-10-31T09:58:54;13.60;99.90
50067;DHT22;35952;52.524;13.340;2023-10-31T10:01:31;13.70;99.90
50067;DHT22;35952;52.524;13.340;2023-10-31T10:04:00;13.80;99.90
50067;DHT22;35952;52.524;13.340;2023-10-31T10:06:34;13.80;99.90
50067;DHT22;35952;52.524;13.340;2023-10-31T10:09:02;13.80;99.90
50067;DHT22;35952;52.524;13.340;2023-10-31T10:11:33;13.80;99.90
50067;DHT22;35952;52.524;13.340;2023-10-31T10:14:04;13.70;99.90
50067;DHT22;35952;52.524;13.340;2023-10-31T10:16:38;13.70;99.90
50067;DHT22;35952;52.524;13.340;2023-10-31T10:19:20;13.80;99.90
50067;DHT22;35952;52.524;13.340;2023-10-31T10:21:52;13.90;99.90
50067;DHT22;35952;52.524;13.340;2023-10-31T10:24:22;13.90;99.90
50067;DHT22;35952;52.524;13.340;2023-10-31T10:26:51;13.80;99.90
50067;DHT22;35952;52.524;13.340;2023-10-31T10:29:17;13.80;99.90
50067;DHT22;35952;52.524;13.340;2023-10-31T10:31:45;13.90;99.90
50067;DHT22;35952;52.524;13.340;2023-10-31T10:34:14;14.00;99.90
50067;DHT22;35952;52.524;13.340;2023-10-31T10:36:47;13.70;99.90
50067;DHT22;35952;52.524;13.340;2023-10-31T10:39:21;13.80;99.90
50067;DHT22;35952;52.524;13.340;2023-10-31T10:41:57;13.80;99.90
50067;DHT22;35952;52.524;13.340;2023-10-31T10:44:35;14.00;99.90
50067;DHT22;35952;52.524;13.340;2023-10-31T10:47:05;13.90;99.90
50067;DHT22;35952;52.524;13.340;2023-10-31T10:49:39;14.20;99.90
50067;DHT22;35952;52.524;13.340;2023-10-31T10:52:22;14.30;99.90
50067;DHT22;35952;52.524;13.340;2023-10-31T10:55:08;14.10;99.90
50067;DHT22;35952;52.524;13.340;2023-10-31T11:00:23;14.20;99.90
50067;DHT22;35952;52.524;13.340;2023-10-31T11:02:53;14.20;99.90
50067;DHT22;35952;52.524;13.340;2023-10-31T11:05:22;14.40;99.90
50067;DHT22;35952;52.524;13.340;2023-10-31T11:07:51;14.50;99.90
50067;DHT22;35952;52.524;13.340;2023-10-31T11:10:21;14.70;99.90
50067;DHT22;35952;52.524;13.340;2023-10-31T11:12:50;14.70;99.90
50067;DHT22;35952;52.524;13.340;2023-10-31T11:15:17;14.80;99.90
50067;DHT22;35952;52.524;13.340;2023-10-31T11:17:50;14.70;99.90
50067;DHT22;35952;52.524;13.340;2023-10-31T11:20:24;14.70;99.90
50067;DHT22;35952;52.524;13.340;2023-10-31T11:22:56;14.60;99.90
50067;DHT22;35952;52.524;13.340;2023-10-31T11:25:25;14.50;99.90
50067;DHT22;35952;52.524;13.340;2023-10-31T11:27:51;14.50;99.90
50067;DHT22;35952;52.524;13.340;2023-10-31T11:30:28;14.40;99.90
50067;DHT22;35952;52.524;13.340;2023-10-31T11:33:00;14.30;99.90
50067;DHT22;35952;52.524;13.340;2023-10-31T11:35:29;14.20;99.90
50067;DHT22;35952;52.524;13.340;2023-10-31T11:38:03;14.20;99.90
50067;DHT22;35952;52.524;13.340;2023-10-31T11:40:36;14.10;99.90
50067;DHT22;35952;52.524;13.340;2023-10-31T11:43:04;13.90;99.90
50067;DHT22;35952;52.524;13.340;2023-10-31T11:45:34;13.90;99.90
50067;DHT22;35952;52.524;13.340;2023-10-31T11:48:00;13.90;99.90
50067;DHT22;35952;52.524;13.340;2023-10-31T11:50:26;13.90;99.90
50067;DHT22;35952;52.524;13.340;2023-10-31T11:53:05;13.90;99.90
50067;DHT22;35952;52.524;13.340;2023-10-31T11:55:36;13.90;99.90
50067;DHT22;35952;52.524;13.340;2023-10-31T12:00:44;14.20;99.90
50067;DHT22;35952;52.524;13.340;2023-10-31T12:03:10;14.30;99.90
50067;DHT22;35952;52.524;13.340;2023-10-31T12:05:36;14.40;99.90
50067;DHT22;35952;52.524;13.340;2023-10-31T12:08:01;14.40;99.90
50067;DHT22;35952;52.524;13.340;2023-10-31T12:10:29;14.20;99.90
50067;DHT22;35952;52.524;13.340;2023-10-31T12:12:58;14.10;99.90
50067;DHT22;35952;52.524;13.340;2023-10-31T12:15:25;14.00;99.90
50067;DHT22;35952;52.524;13.340;2023-10-31T12:17:50;13.90;99.90
50067;DHT22;35952;52.524;13.340;2023-10-31T12:20:16;13.90;99.90
50067;DHT22;35952;52.524;13.340;2023-10-31T12:22:42;13.80;99.90
50067;DHT22;35952;52.524;13.340;2023-10-31T12:25:10;13.80;99.90
50067;DHT22;35952;52.524;13.340;2023-10-31T12:27:46;13.90;99.90
50067;DHT22;35952;52.524;13.340;2023-10-31T12:30:13;14.00;99.90
50067;DHT22;35952;52.524;13.340;2023-10-31T12:32:42;14.10;99.90
50067;DHT22;35952;52.524;13.340;2023-10-31T12:35:10;14.10;99.90
50067;DHT22;35952;52.524;13.340;2023-10-31T12:37:47;14.20;99.90
50067;DHT22;35952;52.524;13.340;2023-10-31T12:40:15;14.20;99.90
50067;DHT22;35952;52.524;13.340;2023-10-31T12:42:43;14.30;99.90
50067;DHT22;35952;52.524;13.340;2023-10-31T12:45:09;14.30;99.90
50067;DHT22;35952;52.524;13.340;2023-10-31T12:47:34;14.30;99.90
50067;DHT22;35952;52.524;13.340;2023-10-31T12:50:13;14.40;99.90
50067;DHT22;35952;52.524;13.340;2023-10-31T12:53:06;14.30;99.90
50067;DHT22;35952;52.524;13.340;2023-10-31T12:55:40;14.30;99.90
50067;DHT22;35952;52.524;13.340;2023-10-31T12:58:07;14.20;99.90
50067;DHT22;35952;52.524;13.340;2023-10-31T13:00:36;14.40;99.90
50067;DHT22;35952;52.524;13.340;2023-10-31T13:03:07;14.40;99.90
50067;DHT22;35952;52.524;13.340;2023-10-31T13:05:34;14.30;99.90
50067;DHT22;35952;52.524;13.340;2023-10-31T13:08:00;14.20;99.90
50067;DHT22;35952;52.524;13.340;2023-10-31T13:10:28;14.20;99.90
50067;DHT22;35952;52.524;13.340;2023-10-31T13:12:55;14.10;99.90
50067;DHT22;35952;52.524;13.340;2023-10-31T13:15:22;14.00;99.90
50067;DHT22;35952;52.524;13.340;2023-10-31T13:17:49;14.00;99.90
50067;DHT22;35952;52.524;13.340;2023-10-31T13:20:16;13.90;99.90
50067;DHT22;35952;52.524;13.340;2023-10-31T13:22:43;14.00;99.90
50067;DHT22;35952;52.524;13.340;2023-10-31T13:25:10;14.00;99.90
50067;DHT22;35952;52.524;13.340;2023-10-31T13:27:37;14.00;99.90
50067;DHT22;35952;52.524;13.340;2023-10-31T13:30:04;14.00;99.90
50067;DHT22;35952;52.524;13.340;2023-10-31T13:32:29;13.90;99.90
50067;DHT22;35952;52.524;13.340;2023-10-31T13:34:55;13.90;99.90
50067;DHT22;35952;52.524;13.340;2023-10-31T13:37:20;14.00;99.90
50067;DHT22;35952;52.524;13.340;2023-10-31T13:39:46;13.70;99.90
50067;DHT22;35952;52.524;13.340;2023-10-31T13:42:11;13.60;99.90
50067;DHT22;35952;52.524;13.340;2023-10-31T13:44:37;13.50;99.90
50067;DHT22;35952;52.524;13.340;2023-10-31T13:47:03;13.50;99.90
50067;DHT22;35952;52.524;13.340;2023-10-31T13:49:29;13.30;99.90
50067;DHT22;35952;52.524;13.340;2023-10-31T13:51:54;13.20;99.90
50067;DHT22;35952;52.524;13.340;2023-10-31T13:54:20;13.10;99.90
50067;DHT22;35952;52.524;13.340;2023-10-31T13:56:46;13.00;99.90
50067;DHT22;35952;52.524;13.340;2023-10-31T13:59:12;13.20;99.90
50067;DHT22;35952;52.524;13.340;2023-10-31T14:01:37;13.20;99.90
50067;DHT22;35952;52.524;13.340;2023-10-31T14:04:03;13.20;99.90
50067;DHT22;35952;52.524;13.340;2023-10-31T14:06:28;13.20;99.90
50067;DHT22;35952;52.524;13.340;2023-10-31T14:08:56;13.20;99.90
50067;DHT22;35952;52.524;13.340;2023-10-31T14:11:21;13.20;99.90
50067;DHT22;35952;52.524;13.340;2023-10-31T14:13:47;13.20;99.90
50067;DHT22;35952;52.524;13.340;2023-10-31T14:16:13;13.10;99.90
50067;DHT22;35952;52.524;13.340;2023-10-31T14:18:38;13.10;99.90
50067;DHT22;35952;52.524;13.340;2023-10-31T14:21:04;13.00;99.90
50067;DHT22;35952;52.524;13.340;2023-10-31T14:23:30;13.00;99.90
50067;DHT22;35952;52.524;13.340;2023-10-31T14:25:56;12.90;99.90
50067;DHT22;35952;52.524;13.340;2023-10-31T14:28:21;12.90;99.90
50067;DHT22;35952;52.524;13.340;2023-10-31T14:30:47;12.80;99.90
50067;DHT22;35952;52.524;13.340;2023-10-31T14:33:12;12.60;99.90
50067;DHT22;35952;52.524;13.340;2023-10-31T14:35:39;12.50;99.90
50067;DHT22;35952;52.524;13.340;2023-10-31T14:38:04;12.40;99.90
50067;DHT22;35952;52.524;13.340;2023-10-31T14:40:30;12.20;99.90
50067;DHT22;35952;52.524;13.340;2023-10-31T14:42:55;12.00;99.90
50067;DHT22;35952;52.524;13.340;2023-10-31T14:45:21;12.00;99.90
50067;DHT22;35952;52.524;13.340;2023-10-31T14:47:46;11.90;99.90
50067;DHT22;35952;52.524;13.340;2023-10-31T14:50:12;11.90;99.90
50067;DHT22;35952;52.524;13.340;2023-10-31T14:52:37;11.90;99.90
50067;DHT22;35952;52.524;13.340;2023-10-31T14:55:03;11.90;99.90
50067;DHT22;35952;52.524;13.340;2023-10-31T14:57:29;11.90;99.90
50067;DHT22;35952;52.524;13.340;2023-10-31T14:59:54;11.90;99.90
50067;DHT22;35952;52.524;13.340;2023-10-31T15:02:22;11.80;99.90
50067;DHT22;35952;52.524;13.340;2023-10-31T15:04:48;11.70;99.90
50067;DHT22;35952;52.524;13.340;2023-10-31T15:07:13;11.80;99.90
50067;DHT22;35952;52.524;13.340;2023-10-31T15:09:39;11.90;99.90
50067;DHT22;35952;52.524;13.340;2023-10-31T15:12:04;11.90;99.90
50067;DHT22;35952;52.524;13.340;2023-10-31T15:14:30;11.90;99.90
50067;DHT22;35952;52.524;13.340;2023-10-31T15:16:55;11.80;99.90
50067;DHT22;35952;52.524;13.340;2023-10-31T15:19:21;11.80;99.90
50067;DHT22;35952;52.524;13.340;2023-10-31T15:21:47;11.70;99.90
50067;DHT22;35952;52.524;13.340;2023-10-31T15:24:12;11.80;99.90